Time;durP1;ratioP1;P1;durP2;ratioP2;P2;SDS_P1;SDS_P2;PMS_P1;PMS_P2;Temp;Humidity;BMP_temperature;BMP_pressure;BME280_temperature;BME280_humidity;BME280_pressure;Samples;Min_cycle;Max_cycle;Signal;HPM_P1;HPM_P2
2022/09/26 00:01:14;;;;;;;4.07;2.72;;;14.00;93.90;;;;;;5019301;28;20028;-81
2022/09/26 00:03:52;;;;;;;3.15;2.47;;;14.00;93.90;;;;;;5019103;28;20025;-81
2022/09/26 00:06:20;;;;;;;3.75;2.53;;;14.00;93.90;;;;;;5018783;28;20466;-81
2022/09/26 00:08:49;;;;;;;3.05;2.63;;;14.00;94.00;;;;;;5036771;28;20506;-81
2022/09/26 00:11:24;;;;;;;4.18;2.45;;;14.00;94.10;;;;;;5019545;28;20033;-81
2022/09/26 00:13:53;;;;;;;5.63;2.67;;;14.00;94.10;;;;;;5036767;28;20029;-81
2022/09/26 00:16:18;;;;;;;3.47;2.60;;;14.00;94.10;;;;;;5019557;28;20053;-82
2022/09/26 00:18:49;;;;;;;6.60;3.15;;;14.00;94.10;;;;;;5018782;28;20061;-82
2022/09/26 00:21:16;;;;;;;5.43;2.42;;;14.00;94.10;;;;;;5002619;28;20060;-82
2022/09/26 00:23:42;;;;;;;3.20;2.20;;;14.00;94.10;;;;;;5002289;28;20665;-81
2022/09/26 00:26:08;;;;;;;2.25;1.98;;;14.00;94.10;;;;;;5016400;28;20069;-81
2022/09/26 00:28:34;;;;;;;3.50;2.08;;;13.90;94.10;;;;;;5016784;28;20477;-83
2022/09/26 00:31:14;;;;;;;2.85;2.10;;;13.90;94.20;;;;;;5036744;28;20033;-82
2022/09/26 00:33:43;;;;;;;5.32;2.05;;;13.90;94.20;;;;;;5034920;28;20022;-83
2022/09/26 00:36:09;;;;;;;5.60;2.13;;;13.90;94.20;;;;;;5018196;28;20025;-81
2022/09/26 00:38:35;;;;;;;4.10;2.40;;;13.90;94.20;;;;;;5017790;28;20032;-82
2022/09/26 00:41:02;;;;;;;2.75;1.88;;;13.90;94.30;;;;;;5014558;28;20061;-81
2022/09/26 00:43:41;;;;;;;2.63;2.03;;;13.90;94.20;;;;;;5014920;28;20026;-83
2022/09/26 00:46:38;;;;;;;3.65;1.98;;;13.80;94.30;;;;;;5014751;28;20041;-83
2022/09/26 00:49:37;;;;;;;3.47;2.00;;;13.80;94.40;;;;;;5014580;28;20026;-82
2022/09/26 00:52:26;;;;;;;3.00;2.00;;;13.80;94.40;;;;;;5014470;28;20041;-82
2022/09/26 00:54:54;;;;;;;3.90;2.00;;;13.80;94.40;;;;;;5014956;28;20061;-81
2022/09/26 00:57:36;;;;;;;5.00;2.00;;;13.80;94.50;;;;;;5016025;28;20018;-81
2022/09/26 01:00:09;;;;;;;2.17;1.83;;;13.80;94.50;;;;;;5015001;28;20021;-82
2022/09/26 01:02:40;;;;;;;3.38;2.10;;;13.80;94.50;;;;;;5021261;28;20026;-81
2022/09/26 01:05:09;;;;;;;4.25;1.80;;;13.80;94.40;;;;;;5027101;28;20087;-81
2022/09/26 01:07:35;;;;;;;3.63;1.90;;;13.90;94.40;;;;;;5036854;28;20010;-84
2022/09/26 01:10:05;;;;;;;1.77;1.60;;;13.90;94.40;;;;;;5038555;28;20020;-82
2022/09/26 01:12:33;;;;;;;2.30;2.10;;;13.90;94.40;;;;;;5038316;28;20018;-89
2022/09/26 01:15:01;;;;;;;2.72;1.98;;;13.90;94.40;;;;;;5031456;28;20025;-81
2022/09/26 01:17:27;;;;;;;4.22;2.10;;;13.90;94.40;;;;;;4999755;28;20038;-81
2022/09/26 01:20:12;;;;;;;3.58;2.10;;;14.00;94.40;;;;;;5014457;28;20042;-82
2022/09/26 01:23:14;;;;;;;2.85;1.85;;;14.00;94.50;;;;;;5030779;28;20049;-81
2022/09/26 01:26:20;;;;;;;5.05;1.92;;;14.00;94.60;;;;;;5030034;28;20073;-81
2022/09/26 01:29:03;;;;;;;3.92;2.10;;;14.00;94.50;;;;;;5030651;28;20061;-81
2022/09/26 01:35:09;;;;;;;;;;;14.00;94.50;;;;;;5016178;28;20033;-82
2022/09/26 01:37:35;;;;;;;2.90;2.30;;;14.10;94.50;;;;;;5030618;28;20004;-81
2022/09/26 01:40:15;;;;;;;2.83;2.10;;;14.10;94.40;;;;;;5030652;28;20539;-81
2022/09/26 01:43:09;;;;;;;4.43;2.28;;;14.10;94.40;;;;;;5014349;28;20117;-82
2022/09/26 01:46:03;;;;;;;5.03;2.40;;;14.10;94.50;;;;;;5030818;28;20033;-80
2022/09/26 01:48:54;;;;;;;2.78;2.05;;;14.10;94.60;;;;;;4987314;28;20034;-82
2022/09/26 01:51:59;;;;;;;5.80;2.40;;;14.10;94.50;;;;;;5014063;28;20022;-82
2022/09/26 01:54:48;;;;;;;3.05;2.30;;;14.20;94.50;;;;;;5013484;28;20397;-81
2022/09/26 01:57:23;;;;;;;4.25;2.55;;;14.20;94.40;;;;;;5013240;28;20034;-81
2022/09/26 01:59:59;;;;;;;4.30;2.20;;;14.20;94.40;;;;;;5014872;28;20026;-87
2022/09/26 02:02:38;;;;;;;2.92;2.17;;;14.20;94.40;;;;;;5013797;28;20041;-82
2022/09/26 02:05:07;;;;;;;3.90;2.60;;;14.10;94.30;;;;;;5013657;28;20038;-81
2022/09/26 02:07:42;;;;;;;3.58;2.30;;;14.10;94.40;;;;;;5030388;28;20030;-82
2022/09/26 02:10:26;;;;;;;4.53;2.17;;;14.10;94.40;;;;;;5013575;28;20022;-82
2022/09/26 02:13:07;;;;;;;3.95;2.30;;;14.10;94.40;;;;;;5015109;28;20076;-82
2022/09/26 02:15:36;;;;;;;3.08;2.42;;;14.10;94.40;;;;;;5013656;28;20025;-83
2022/09/26 02:18:20;;;;;;;4.63;2.40;;;14.00;94.40;;;;;;5029863;28;20026;-83
2022/09/26 02:20:54;;;;;;;4.13;1.92;;;13.90;94.50;;;;;;5028963;28;20033;-81
2022/09/26 02:23:20;;;;;;;4.50;2.42;;;14.00;94.40;;;;;;5013043;28;20020;-81
2022/09/26 02:25:47;;;;;;;4.07;2.22;;;14.00;94.30;;;;;;5013728;28;20049;-82
2022/09/26 02:28:13;;;;;;;4.60;2.25;;;14.00;94.20;;;;;;5013213;28;20069;-80
2022/09/26 02:30:43;;;;;;;5.00;2.28;;;13.90;94.20;;;;;;5013215;28;20112;-83
2022/09/26 02:33:09;;;;;;;3.85;2.38;;;13.90;94.30;;;;;;5029828;28;20109;-82
2022/09/26 02:38:28;;;;;;;5.28;2.30;;;13.90;94.20;;;;;;5027871;28;20045;-81
2022/09/26 02:41:27;;;;;;;6.15;2.22;;;13.90;94.10;;;;;;5013536;28;20481;-82
2022/09/26 02:44:31;;;;;;;5.47;2.40;;;13.90;94.20;;;;;;5029466;28;20041;-81
2022/09/26 02:47:02;;;;;;;4.05;2.25;;;13.90;94.10;;;;;;5013920;28;20101;-82
2022/09/26 02:49:53;;;;;;;5.03;2.63;;;13.90;94.00;;;;;;5044234;28;20016;-81
2022/09/26 02:52:33;;;;;;;3.75;2.00;;;13.90;94.00;;;;;;5053157;28;20053;-80
2022/09/26 02:55:20;;;;;;;4.50;2.10;;;13.90;94.00;;;;;;5036491;28;20026;-81
2022/09/26 02:58:04;;;;;;;5.35;2.30;;;13.80;93.90;;;;;;5036780;28;20034;-86
2022/09/26 03:00:52;;;;;;;2.88;1.98;;;13.80;94.00;;;;;;5035721;28;20030;-82
2022/09/26 03:03:25;;;;;;;3.25;1.65;;;13.80;94.00;;;;;;5029335;28;20084;-81
2022/09/26 03:05:57;;;;;;;3.20;2.20;;;13.70;94.00;;;;;;5012569;28;20458;-82
2022/09/26 03:08:32;;;;;;;8.32;2.50;;;13.70;94.00;;;;;;5012826;28;20087;-82
2022/09/26 03:11:03;;;;;;;4.57;2.35;;;13.70;93.90;;;;;;5012478;28;20053;-81
2022/09/26 03:13:35;;;;;;;2.95;2.00;;;13.80;93.90;;;;;;5012400;28;20048;-82
2022/09/26 03:16:02;;;;;;;5.65;2.05;;;13.70;93.80;;;;;;5012731;28;20022;-82
2022/09/26 03:18:35;;;;;;;3.58;2.17;;;13.70;93.80;;;;;;5032938;28;20080;-82
2022/09/26 03:21:01;;;;;;;4.53;2.53;;;13.70;93.90;;;;;;5013277;28;20030;-85
2022/09/26 03:23:29;;;;;;;2.75;2.28;;;13.70;94.00;;;;;;5016859;28;20018;-82
2022/09/26 03:26:08;;;;;;;5.55;2.28;;;13.70;93.90;;;;;;4999456;28;20029;-82
2022/09/26 03:28:35;;;;;;;4.05;2.00;;;13.70;93.90;;;;;;5017385;28;20026;-82
2022/09/26 03:31:01;;;;;;;3.25;2.03;;;13.70;94.00;;;;;;5016325;28;20094;-82
2022/09/26 03:33:27;;;;;;;3.42;2.03;;;13.70;93.90;;;;;;5017452;28;20478;-83
2022/09/26 03:35:53;;;;;;;2.47;2.00;;;13.80;94.00;;;;;;5015609;28;20030;-82
2022/09/26 03:38:19;;;;;;;4.07;2.30;;;13.70;94.00;;;;;;5015573;28;20030;-81
2022/09/26 03:40:46;;;;;;;3.28;1.90;;;13.70;93.90;;;;;;5015595;28;20082;-84
2022/09/26 03:43:12;;;;;;;5.30;2.33;;;13.70;94.10;;;;;;5016140;28;20470;-82
2022/09/26 03:45:38;;;;;;;4.57;1.98;;;13.70;94.00;;;;;;5016115;28;20033;-82
2022/09/26 03:48:05;;;;;;;3.97;2.38;;;13.70;94.00;;;;;;4999079;28;20061;-80
2022/09/26 03:50:32;;;;;;;2.97;2.28;;;13.60;94.10;;;;;;5031979;28;20022;-80
2022/09/26 03:53:01;;;;;;;4.13;2.10;;;13.60;94.10;;;;;;5015773;28;20040;-81
2022/09/26 03:55:28;;;;;;;4.82;2.30;;;13.60;94.20;;;;;;5015189;28;20041;-82
2022/09/26 03:57:54;;;;;;;4.32;2.08;;;13.60;94.20;;;;;;5032176;28;20080;-82
2022/09/26 04:00:20;;;;;;;2.85;1.90;;;13.60;94.10;;;;;;5015553;28;20050;-82
2022/09/26 04:02:46;;;;;;;4.75;2.22;;;13.60;94.20;;;;;;5015351;28;20484;-81
2022/09/26 04:05:12;;;;;;;3.25;2.03;;;13.60;94.20;;;;;;5015120;28;20068;-82
2022/09/26 04:07:37;;;;;;;3.15;1.83;;;13.50;94.10;;;;;;4999098;28;20033;-81
2022/09/26 04:10:04;;;;;;;2.97;1.80;;;13.50;94.30;;;;;;5015332;28;20030;-82
2022/09/26 04:12:29;;;;;;;2.28;1.85;;;13.50;94.20;;;;;;5014185;28;20022;-83
2022/09/26 04:15:01;;;;;;;2.63;1.52;;;13.40;94.30;;;;;;4999412;28;20470;-81
2022/09/26 04:17:28;;;;;;;2.83;1.63;;;13.50;94.40;;;;;;5015564;28;20131;-82
2022/09/26 04:19:55;;;;;;;3.72;1.50;;;13.50;94.30;;;;;;5015390;28;20129;-81
2022/09/26 04:22:20;;;;;;;3.38;1.90;;;13.50;94.30;;;;;;5015700;28;20034;-81
2022/09/26 04:24:46;;;;;;;3.38;1.95;;;13.40;94.20;;;;;;5032181;28;20033;-81
2022/09/26 04:27:12;;;;;;;3.72;1.70;;;13.40;94.20;;;;;;5015368;28;20045;-82
2022/09/26 04:29:38;;;;;;;3.15;1.88;;;13.40;94.30;;;;;;4999261;28;20030;-82
2022/09/26 04:32:05;;;;;;;3.42;1.92;;;13.30;94.30;;;;;;5035485;28;20034;-83
2022/09/26 04:34:32;;;;;;;3.63;1.80;;;13.40;94.30;;;;;;5023136;28;20022;-81
2022/09/26 04:36:59;;;;;;;2.33;1.50;;;13.40;94.30;;;;;;5039163;28;20037;-82
2022/09/26 04:39:27;;;;;;;3.20;1.67;;;13.40;94.30;;;;;;5045548;28;20076;-80
2022/09/26 04:41:57;;;;;;;2.65;1.70;;;13.40;94.20;;;;;;5044935;28;20038;-80
2022/09/26 04:44:25;;;;;;;4.15;1.92;;;13.40;94.20;;;;;;5019263;28;20033;-82
2022/09/26 04:46:57;;;;;;;2.83;1.70;;;13.40;94.10;;;;;;5035140;28;20124;-80
2022/09/26 04:49:23;;;;;;;2.38;1.70;;;13.40;94.10;;;;;;5018254;28;20033;-81
2022/09/26 04:51:48;;;;;;;2.70;1.50;;;13.30;94.10;;;;;;5017881;28;20146;-83
2022/09/26 04:54:16;;;;;;;2.15;1.52;;;13.30;94.20;;;;;;5034228;28;20113;-83
2022/09/26 04:56:43;;;;;;;2.88;1.70;;;13.30;94.20;;;;;;5035703;28;20039;-82
2022/09/26 04:59:10;;;;;;;3.13;1.75;;;13.20;94.20;;;;;;5035307;28;20030;-82
2022/09/26 05:01:36;;;;;;;5.63;1.77;;;13.30;94.20;;;;;;5017607;28;20030;-82
2022/09/26 05:04:09;;;;;;;3.50;1.95;;;13.20;94.20;;;;;;5018177;28;20030;-82
2022/09/26 05:06:38;;;;;;;4.65;2.85;;;13.20;94.20;;;;;;5018132;28;20049;-82
2022/09/26 05:09:04;;;;;;;6.18;2.80;;;13.20;94.10;;;;;;5017547;28;20649;-82
2022/09/26 05:11:31;;;;;;;3.60;1.83;;;13.20;94.20;;;;;;5000993;28;20033;-81
2022/09/26 05:13:57;;;;;;;3.45;1.50;;;13.20;94.10;;;;;;5001399;28;20044;-83
2022/09/26 05:16:27;;;;;;;3.20;1.52;;;13.20;94.20;;;;;;5017852;28;20029;-81
2022/09/26 05:18:55;;;;;;;4.65;1.80;;;13.20;94.20;;;;;;5018889;28;20045;-82
2022/09/26 05:21:21;;;;;;;5.22;1.55;;;13.20;94.20;;;;;;5017543;28;20143;-83
2022/09/26 05:26:44;;;;;;;3.42;1.90;;;13.20;94.10;;;;;;5034248;28;20044;-81
2022/09/26 05:29:11;;;;;;;3.15;1.80;;;13.20;94.20;;;;;;5016681;28;20018;-80
2022/09/26 05:31:38;;;;;;;3.38;1.92;;;13.20;94.20;;;;;;5034858;28;20038;-80
2022/09/26 05:34:11;;;;;;;4.78;1.92;;;13.10;94.20;;;;;;5033506;28;20029;-80
2022/09/26 05:36:38;;;;;;;4.40;1.80;;;13.10;94.30;;;;;;5017429;28;20045;-81
2022/09/26 05:41:57;;;;;;;3.53;2.00;;;13.10;94.30;;;;;;5034001;28;20040;-82
2022/09/26 05:44:22;;;;;;;10.35;6.28;;;13.10;94.60;;;;;;5016361;28;20083;-79
2022/09/26 05:46:49;;;;;;;7.10;3.58;;;13.10;94.40;;;;;;5000372;28;20129;-81
2022/09/26 05:49:14;;;;;;;5.53;3.20;;;13.10;94.40;;;;;;4999940;28;20029;-83
2022/09/26 05:51:40;;;;;;;3.80;2.38;;;13.10;94.40;;;;;;5000021;28;20029;-80
2022/09/26 05:54:06;;;;;;;2.35;2.13;;;13.20;94.50;;;;;;5016562;28;20147;-82
2022/09/26 05:56:36;;;;;;;4.05;2.20;;;13.20;94.50;;;;;;5032441;28;20135;-80
2022/09/26 05:59:03;;;;;;;3.67;1.90;;;13.20;94.40;;;;;;5016278;28;20119;-82
2022/09/26 06:01:31;;;;;;;3.85;1.98;;;13.20;94.40;;;;;;5032785;28;20022;-81
2022/09/26 06:03:57;;;;;;;4.80;1.67;;;13.20;94.50;;;;;;5033866;28;20021;-81
2022/09/26 06:06:24;;;;;;;2.20;1.50;;;13.10;94.50;;;;;;5015643;28;20041;-81
2022/09/26 06:08:49;;;;;;;4.15;1.83;;;13.10;94.60;;;;;;5033860;28;20033;-80
2022/09/26 06:11:19;;;;;;;3.25;1.63;;;13.10;94.50;;;;;;5018234;28;20021;-81
2022/09/26 06:13:45;;;;;;;4.72;1.80;;;13.10;94.50;;;;;;5024989;28;20044;-80
2022/09/26 06:16:18;;;;;;;3.95;1.80;;;13.10;94.50;;;;;;5051065;28;20020;-87
2022/09/26 06:18:45;;;;;;;5.43;2.20;;;13.20;94.60;;;;;;5040366;28;20028;-79
2022/09/26 06:21:16;;;;;;;4.07;1.70;;;13.20;94.60;;;;;;5037956;28;20028;-80
2022/09/26 06:23:41;;;;;;;4.30;1.73;;;13.30;94.60;;;;;;5018189;28;20045;-79
2022/09/26 06:26:11;;;;;;;5.28;1.75;;;13.20;94.50;;;;;;5016283;28;20446;-79
2022/09/26 06:28:39;;;;;;;3.72;1.77;;;13.20;94.60;;;;;;5016799;28;20021;-78
2022/09/26 06:31:18;;;;;;;3.47;1.60;;;13.20;94.70;;;;;;5015546;28;20059;-80
2022/09/26 06:33:52;;;;;;;3.85;1.98;;;13.20;94.70;;;;;;5016024;28;20033;-80
2022/09/26 06:36:20;;;;;;;4.53;1.70;;;13.20;94.70;;;;;;5015983;28;20026;-79
2022/09/26 06:38:48;;;;;;;7.15;1.90;;;13.20;94.70;;;;;;4999821;28;20092;-81
2022/09/26 06:41:15;;;;;;;4.15;1.70;;;13.20;94.70;;;;;;5033301;28;20052;-81
2022/09/26 06:43:45;;;;;;;3.75;2.03;;;13.30;94.80;;;;;;5016317;28;20030;-79
2022/09/26 06:46:14;;;;;;;6.80;2.40;;;13.30;94.70;;;;;;5033408;28;20046;-80
2022/09/26 06:48:41;;;;;;;3.70;1.70;;;13.30;94.70;;;;;;5015704;28;20121;-78
2022/09/26 06:51:08;;;;;;;2.35;1.33;;;13.30;94.70;;;;;;5033881;28;20109;-81
2022/09/26 06:53:34;;;;;;;5.25;2.22;;;13.30;94.60;;;;;;5037743;28;20043;-79
2022/09/26 06:56:01;;;;;;;4.50;2.00;;;13.30;94.70;;;;;;5036527;28;20103;-80
2022/09/26 06:58:27;;;;;;;6.97;3.53;;;13.30;94.80;;;;;;5019479;28;20029;-79
2022/09/26 07:00:53;;;;;;;4.22;2.80;;;13.30;94.80;;;;;;5035625;28;20044;-80
2022/09/26 07:03:24;;;;;;;5.18;2.40;;;13.30;94.80;;;;;;5019347;28;20470;-79
2022/09/26 07:05:51;;;;;;;4.20;2.13;;;13.30;94.80;;;;;;5004527;28;20033;-80
2022/09/26 07:08:16;;;;;;;3.58;2.10;;;13.30;94.80;;;;;;5019111;28;20276;-79
2022/09/26 07:10:43;;;;;;;4.35;2.05;;;13.30;94.90;;;;;;5018805;28;20045;-79
2022/09/26 07:13:10;;;;;;;5.47;2.55;;;13.30;94.90;;;;;;5035900;28;20030;-82
2022/09/26 07:15:36;;;;;;;4.97;1.90;;;13.40;94.80;;;;;;5019561;28;20392;-82
2022/09/26 07:18:05;;;;;;;5.22;2.30;;;13.40;94.70;;;;;;5002274;28;20095;-80
2022/09/26 07:20:38;;;;;;;3.72;2.15;;;13.40;94.80;;;;;;5019347;28;20027;-80
2022/09/26 07:23:07;;;;;;;2.25;1.75;;;13.40;94.70;;;;;;5019036;28;20025;-80
2022/09/26 07:25:33;;;;;;;4.03;2.13;;;13.30;94.80;;;;;;5036011;28;20092;-80
2022/09/26 07:28:00;;;;;;;3.88;2.10;;;13.40;94.80;;;;;;5034836;28;20033;-81
2022/09/26 07:30:29;;;;;;;3.90;2.03;;;13.30;94.80;;;;;;5002986;28;20029;-81
2022/09/26 07:33:02;;;;;;;4.05;1.80;;;13.40;94.90;;;;;;5019322;28;20410;-80
2022/09/26 07:35:29;;;;;;;5.00;2.17;;;13.40;94.80;;;;;;5019072;28;20021;-80
2022/09/26 07:37:55;;;;;;;3.47;2.00;;;13.40;94.80;;;;;;5019229;28;20041;-84
2022/09/26 07:40:21;;;;;;;3.75;2.00;;;13.50;94.80;;;;;;5032415;28;20054;-79
2022/09/26 07:42:47;;;;;;;4.35;1.85;;;13.40;94.70;;;;;;5018862;28;20030;-80
2022/09/26 07:50:09;;;;;;;3.53;1.73;;;13.50;94.80;;;;;;5019328;28;20025;-82
2022/09/26 07:50:59;;;;;;;4.65;1.80;;;13.50;94.80;;;;;;5037257;28;20045;-80
2022/09/26 07:53:26;;;;;;;5.47;2.30;;;13.50;94.80;;;;;;5030667;28;20033;-82
2022/09/26 07:56:10;;;;;;;5.30;1.95;;;13.50;94.80;;;;;;5059795;28;20036;-80
2022/09/26 07:58:41;;;;;;;4.00;1.48;;;13.50;94.80;;;;;;5043050;28;20049;-80
2022/09/26 08:01:10;;;;;;;3.65;1.80;;;13.50;94.90;;;;;;5042783;28;20056;-80
2022/09/26 08:03:49;;;;;;;5.20;1.90;;;13.50;94.90;;;;;;5050512;28;20461;-80
2022/09/26 08:06:19;;;;;;;4.88;1.90;;;13.60;94.90;;;;;;5019688;28;20033;-84
2022/09/26 08:08:47;;;;;;;2.78;1.65;;;13.60;94.90;;;;;;5019273;28;20021;-81
2022/09/26 08:11:18;;;;;;;6.05;1.65;;;13.60;94.90;;;;;;5002202;28;20117;-80
2022/09/26 08:13:45;;;;;;;4.18;2.10;;;13.50;94.90;;;;;;5017838;28;20038;-80
2022/09/26 08:16:18;;;;;;;2.33;1.48;;;13.50;94.90;;;;;;5036512;28;20025;-79
2022/09/26 08:18:43;;;;;;;3.55;1.80;;;13.60;94.90;;;;;;5018517;28;20033;-79
2022/09/26 08:21:09;;;;;;;4.47;1.77;;;13.60;94.90;;;;;;5034810;28;20080;-79
2022/09/26 08:23:35;;;;;;;4.95;1.80;;;13.60;94.90;;;;;;5018209;28;20064;-79
2022/09/26 08:26:10;;;;;;;3.55;1.80;;;13.70;94.90;;;;;;5035992;28;20462;-80
2022/09/26 08:28:36;;;;;;;3.58;1.60;;;13.60;94.80;;;;;;5034772;28;20532;-81
2022/09/26 08:31:03;;;;;;;4.35;2.83;;;13.70;94.80;;;;;;5017717;28;20030;-79
2022/09/26 08:33:34;;;;;;;4.43;2.03;;;13.60;94.80;;;;;;5017998;28;20033;-80
2022/09/26 08:36:11;;;;;;;3.40;1.88;;;13.60;94.80;;;;;;5017362;28;20037;-79
2022/09/26 08:38:38;;;;;;;4.25;1.65;;;13.60;94.90;;;;;;5017748;28;20017;-80
2022/09/26 08:41:31;;;;;;;4.10;1.83;;;13.70;94.90;;;;;;5035714;28;20068;-80
2022/09/26 08:44:08;;;;;;;2.70;1.80;;;13.70;94.90;;;;;;5034360;28;20428;-80
2022/09/26 08:46:48;;;;;;;3.17;1.80;;;13.70;94.80;;;;;;5034246;28;20041;-80
2022/09/26 08:49:51;;;;;;;3.33;1.45;;;13.80;94.80;;;;;;5017986;28;20483;-79
2022/09/26 08:52:55;;;;;;;3.47;1.60;;;13.80;94.80;;;;;;5034490;28;20053;-82
2022/09/26 08:55:36;;;;;;;2.55;1.52;;;13.80;94.80;;;;;;5034053;28;20029;-83
2022/09/26 08:58:18;;;;;;;4.90;1.45;;;13.90;94.80;;;;;;5035820;28;20088;-81
2022/09/26 09:00:48;;;;;;;5.22;1.80;;;13.80;94.80;;;;;;5035418;28;20033;-81
2022/09/26 09:03:40;;;;;;;3.65;2.00;;;13.80;94.70;;;;;;5035247;28;20048;-79
2022/09/26 09:06:11;;;;;;;3.22;1.58;;;13.90;94.80;;;;;;5035585;28;20083;-79
2022/09/26 09:08:45;;;;;;;4.05;1.80;;;13.90;94.80;;;;;;5034881;28;20021;-78
2022/09/26 09:11:48;;;;;;;3.53;1.40;;;13.80;94.70;;;;;;5017472;28;20033;-80
2022/09/26 09:14:31;;;;;;;2.83;1.48;;;13.80;94.80;;;;;;5033062;28;20033;-79
2022/09/26 09:17:28;;;;;;;6.80;1.80;;;13.90;94.90;;;;;;5034000;28;20152;-81
2022/09/26 09:20:12;;;;;;;3.38;1.70;;;13.90;94.90;;;;;;5033729;28;20128;-81
2022/09/26 09:22:59;;;;;;;6.28;2.03;;;14.00;95.00;;;;;;5035065;28;20032;-81
2022/09/26 09:25:47;;;;;;;4.53;1.60;;;14.00;94.90;;;;;;5033588;28;20086;-81
2022/09/26 09:28:55;;;;;;;3.85;1.52;;;14.00;95.00;;;;;;5034897;28;20032;-79
2022/09/26 09:31:22;;;;;;;5.05;1.60;;;14.10;95.20;;;;;;5035105;28;20018;-81
2022/09/26 09:33:58;;;;;;;5.15;2.17;;;14.10;95.10;;;;;;5018004;28;20067;-80
2022/09/26 09:36:44;;;;;;;4.28;1.58;;;14.10;95.20;;;;;;5052067;28;20034;-79
2022/09/26 09:39:20;;;;;;;7.60;2.50;;;14.10;95.20;;;;;;5041489;28;20017;-80
2022/09/26 09:41:53;;;;;;;3.67;2.00;;;14.10;95.20;;;;;;5041278;28;20049;-81
2022/09/26 09:44:54;;;;;;;3.38;2.03;;;14.10;95.30;;;;;;5041343;28;20060;-79
2022/09/26 09:47:24;;;;;;;5.38;2.13;;;14.10;95.40;;;;;;4991346;28;20041;-80
2022/09/26 09:49:50;;;;;;;3.30;1.70;;;14.20;95.40;;;;;;5017073;28;20053;-79
2022/09/26 09:52:19;;;;;;;4.75;1.73;;;14.20;95.50;;;;;;5017218;28;20033;-80
2022/09/26 09:55:09;;;;;;;3.22;1.40;;;14.20;95.50;;;;;;5033256;28;20091;-79
2022/09/26 09:57:43;;;;;;;;;;;14.30;95.60;;;;;;5034323;28;20100;-80
2022/09/26 10:00:31;;;;;;;3.13;1.70;;;14.30;95.50;;;;;;5017096;28;20008;-81
2022/09/26 10:03:02;;;;;;;4.22;1.98;;;14.20;95.60;;;;;;5034279;28;20025;-81
2022/09/26 10:05:59;;;;;;;3.60;1.60;;;14.30;95.70;;;;;;5034333;28;20366;-82
2022/09/26 10:08:35;;;;;;;3.20;1.60;;;14.30;95.70;;;;;;5015412;28;20567;-81
2022/09/26 10:11:08;;;;;;;4.45;1.70;;;14.40;95.70;;;;;;5034436;28;20017;-80
2022/09/26 10:13:36;;;;;;;3.50;1.52;;;14.50;95.60;;;;;;5033523;28;20036;-80
2022/09/26 10:16:05;;;;;;;3.47;1.77;;;14.40;95.70;;;;;;5017263;28;20524;-81
2022/09/26 10:18:31;;;;;;;3.67;1.63;;;14.40;95.70;;;;;;5034171;28;20029;-84
2022/09/26 10:21:10;;;;;;;3.45;1.80;;;14.50;95.80;;;;;;5016895;28;20048;-81
2022/09/26 10:23:43;;;;;;;2.35;1.35;;;14.50;95.80;;;;;;5017084;28;20022;-82
2022/09/26 10:26:11;;;;;;;3.72;1.85;;;14.40;95.80;;;;;;5034526;28;20366;-81
2022/09/26 10:28:48;;;;;;;3.47;1.50;;;14.40;95.80;;;;;;5015855;28;20542;-81
2022/09/26 10:31:29;;;;;;;2.30;1.80;;;14.40;95.90;;;;;;5033348;28;20025;-81
2022/09/26 10:34:01;;;;;;;3.75;1.60;;;14.40;96.00;;;;;;5016337;28;20029;-80
2022/09/26 10:36:31;;;;;;;;;;;14.50;96.10;;;;;;5017313;28;20034;-82
2022/09/26 10:41:48;;;;;;;2.95;1.77;;;14.50;96.00;;;;;;5034258;28;20175;-80
2022/09/26 10:44:33;;;;;;;3.13;1.70;;;14.50;95.90;;;;;;5016765;28;20103;-80
2022/09/26 10:47:07;;;;;;;3.35;1.50;;;14.50;96.10;;;;;;5015815;28;20405;-80
2022/09/26 10:49:55;;;;;;;3.08;1.40;;;14.50;96.20;;;;;;5016015;28;20473;-81
2022/09/26 10:52:33;;;;;;;3.28;1.52;;;14.50;96.20;;;;;;5016193;28;20025;-80
2022/09/26 10:55:03;;;;;;;4.32;1.50;;;14.40;96.10;;;;;;5016208;28;20053;-79
2022/09/26 10:57:50;;;;;;;3.00;1.67;;;14.40;96.20;;;;;;5016053;28;20026;-80
2022/09/26 11:00:45;;;;;;;4.43;1.75;;;14.40;96.30;;;;;;5016288;28;20024;-81
2022/09/26 11:03:13;;;;;;;2.95;1.42;;;14.40;96.40;;;;;;5016274;28;20033;-81
2022/09/26 11:05:58;;;;;;;4.82;1.70;;;14.40;96.40;;;;;;5032724;28;20065;-80
2022/09/26 11:08:32;;;;;;;4.90;2.40;;;14.40;96.40;;;;;;5016257;28;20034;-81
2022/09/26 11:11:07;;;;;;;4.85;2.17;;;14.40;96.50;;;;;;5015729;28;20115;-80
2022/09/26 11:14:02;;;;;;;3.40;1.70;;;14.40;96.60;;;;;;5032774;28;20457;-81
2022/09/26 11:16:28;;;;;;;4.18;2.13;;;14.30;96.70;;;;;;5016751;28;20033;-82
2022/09/26 11:19:21;;;;;;;4.75;1.70;;;14.30;96.70;;;;;;5041964;28;20052;-82
2022/09/26 11:21:50;;;;;;;3.95;1.70;;;14.40;96.80;;;;;;5056392;28;20040;-86
2022/09/26 11:24:44;;;;;;;4.85;1.92;;;14.40;96.80;;;;;;5057157;28;20021;-80
2022/09/26 11:27:23;;;;;;;2.55;1.70;;;14.40;96.80;;;;;;5057342;28;20025;-81
2022/09/26 11:30:08;;;;;;;3.75;1.95;;;14.40;96.80;;;;;;5030173;28;20034;-83
2022/09/26 11:32:40;;;;;;;3.53;1.67;;;14.30;96.90;;;;;;5017454;28;20457;-81
2022/09/26 11:35:28;;;;;;;3.15;1.25;;;14.30;96.90;;;;;;5034074;28;20465;-82
2022/09/26 11:38:23;;;;;;;3.72;1.83;;;14.30;97.00;;;;;;5017078;28;20045;-82
2022/09/26 11:41:35;;;;;;;1.85;1.20;;;14.30;97.10;;;;;;5019024;28;20129;-81
2022/09/26 11:44:28;;;;;;;2.72;1.40;;;14.30;97.10;;;;;;5036616;28;20030;-82
2022/09/26 11:47:24;;;;;;;2.20;1.40;;;14.20;97.10;;;;;;5036854;28;20112;-81
2022/09/26 11:50:38;;;;;;;2.13;1.30;;;14.20;97.20;;;;;;5019016;28;20029;-82
2022/09/26 11:53:35;;;;;;;2.33;1.40;;;14.20;97.20;;;;;;4988058;28;20039;-81
2022/09/26 11:56:22;;;;;;;4.13;1.45;;;14.20;97.30;;;;;;5035983;28;20037;-83
2022/09/26 11:59:18;;;;;;;2.90;1.45;;;14.20;97.30;;;;;;5035516;28;20021;-83
2022/09/26 12:02:14;;;;;;;3.63;1.70;;;14.20;97.40;;;;;;5035628;28;20421;-82
2022/09/26 12:05:18;;;;;;;3.05;1.38;;;14.20;97.40;;;;;;5035568;28;20029;-82
2022/09/26 12:08:28;;;;;;;2.30;1.30;;;14.20;97.30;;;;;;5036720;28;20037;-83
2022/09/26 12:11:05;;;;;;;3.10;1.60;;;14.10;97.30;;;;;;4959141;28;20506;-82
2022/09/26 12:13:56;;;;;;;2.63;1.55;;;14.10;97.50;;;;;;5011106;28;20037;-82
2022/09/26 12:16:57;;;;;;;3.60;1.70;;;14.10;97.60;;;;;;5035061;28;20053;-82
2022/09/26 12:19:50;;;;;;;3.03;1.70;;;14.20;97.60;;;;;;5036392;28;20025;-83
2022/09/26 12:22:30;;;;;;;3.97;1.70;;;14.20;97.70;;;;;;5035539;28;20136;-83
2022/09/26 12:25:34;;;;;;;2.00;1.20;;;14.30;97.70;;;;;;5036404;28;20022;-83
2022/09/26 12:28:19;;;;;;;1.60;1.20;;;14.30;97.60;;;;;;5035147;28;20095;-83
2022/09/26 12:31:22;;;;;;;2.13;1.38;;;14.30;97.70;;;;;;5035562;28;20116;-82
2022/09/26 12:34:10;;;;;;;2.17;1.40;;;14.30;97.60;;;;;;5035215;28;20022;-83
2022/09/26 12:37:00;;;;;;;3.00;1.52;;;14.30;97.50;;;;;;5035967;28;20509;-83
2022/09/26 12:39:44;;;;;;;2.55;1.20;;;14.20;97.60;;;;;;5032614;28;20508;-82
2022/09/26 12:43:07;;;;;;;2.72;1.40;;;14.20;97.80;;;;;;5031274;28;20528;-83
2022/09/26 12:46:27;;;;;;;3.33;1.63;;;14.20;97.80;;;;;;5030942;28;20073;-83
2022/09/26 12:49:43;;;;;;;2.95;1.33;;;14.10;97.80;;;;;;4957514;28;20203;-81
2022/09/26 12:52:49;;;;;;;2.30;1.17;;;14.10;97.80;;;;;;5016162;28;20025;-82
2022/09/26 12:55:38;;;;;;;2.67;1.30;;;14.10;97.80;;;;;;5001603;28;20561;-83
2022/09/26 12:58:22;;;;;;;1.85;1.50;;;14.10;97.80;;;;;;5003443;28;20134;-82
2022/09/26 13:01:31;;;;;;;1.75;1.05;;;14.10;97.90;;;;;;5016070;28;20037;-81
2022/09/26 13:04:21;;;;;;;1.58;1.10;;;14.10;98.00;;;;;;5048998;28;20010;-84
2022/09/26 13:07:25;;;;;;;1.05;0.85;;;14.20;98.10;;;;;;5054361;28;20113;-81
2022/09/26 13:10:18;;;;;;;2.60;1.00;;;14.20;98.00;;;;;;5039062;28;20070;-89
2022/09/26 13:13:12;;;;;;;1.10;1.00;;;14.20;97.90;;;;;;5052038;28;20030;-82
2022/09/26 13:16:18;;;;;;;1.27;1.17;;;14.20;97.90;;;;;;5031132;28;20029;-83
2022/09/26 13:18:48;;;;;;;1.58;0.75;;;14.30;98.00;;;;;;5014550;28;20026;-81
2022/09/26 13:21:46;;;;;;;1.42;1.13;;;14.20;98.00;;;;;;5013976;28;20044;-84
2022/09/26 13:24:27;;;;;;;1.52;1.08;;;14.30;98.10;;;;;;5013963;28;20457;-82
2022/09/26 13:27:04;;;;;;;1.13;0.80;;;14.30;98.10;;;;;;5013140;28;20413;-82
2022/09/26 13:29:37;;;;;;;1.55;1.00;;;14.30;98.10;;;;;;5014350;28;20026;-81
2022/09/26 13:32:40;;;;;;;1.95;0.95;;;14.30;98.10;;;;;;5014175;28;20037;-82
2022/09/26 13:35:20;;;;;;;3.15;2.25;;;14.30;98.00;;;;;;5030163;28;20028;-81
2022/09/26 13:38:14;;;;;;;5.03;3.78;;;14.30;98.00;;;;;;5013715;28;20045;-80
2022/09/26 13:41:05;;;;;;;3.58;1.92;;;14.40;98.10;;;;;;5014641;28;20033;-81
2022/09/26 13:44:09;;;;;;;1.50;1.10;;;14.40;98.10;;;;;;5030696;28;20381;-82
2022/09/26 13:46:58;;;;;;;1.00;0.90;;;14.50;98.00;;;;;;5030143;28;20034;-81
2022/09/26 13:50:04;;;;;;;1.00;0.90;;;14.50;98.00;;;;;;5004108;28;20414;-81
2022/09/26 13:52:46;;;;;;;1.35;0.70;;;14.50;98.10;;;;;;5029433;28;20030;-81
2022/09/26 13:55:20;;;;;;;1.25;0.70;;;14.50;98.10;;;;;;5013435;28;20026;-80